LHA277 LFLU-EDDM
Flight info
| Callsign | LHA277 |
|---|---|
| Flight time | 0h 59m |
| Altitude | 38000 |
| Route | LFLU/01 DCT LUXAN DCT OMASI DCT BETOS DCT EDDM/BET08.I08R |
| Aircraft | B738/M-SDE1E2FGIJ1RWYZ/S |
Departure
| Time | 2026-04-30 10:55 |
|---|---|
| Airport | Valence-Chabeuil Airport (LFLU) |
Arrival
| Time | 2026-04-30 11:55 |
|---|---|
| Airport | Munich Airport (EDDM) |
| Time | Latitude | Longitude | Altitude | Speed | Heading |
|---|---|---|---|---|---|
| 2026-04-30 10:44 | 44.91641 | 4.96510 | 533 ft | 0 kts | 312° |
| 2026-04-30 10:50 | 44.91635 | 4.96519 | 533 ft | 3 kts | 313° |
| 2026-04-30 10:50 | 44.91621 | 4.96539 | 533 ft | 3 kts | 311° |
| 2026-04-30 10:51 | 44.91608 | 4.96561 | 533 ft | 3 kts | 307° |
| 2026-04-30 10:51 | 44.91596 | 4.96584 | 533 ft | 3 kts | 304° |
| 2026-04-30 10:51 | 44.91585 | 4.96608 | 533 ft | 3 kts | 306° |
| 2026-04-30 10:51 | 44.91572 | 4.96629 | 533 ft | 3 kts | 321° |
| 2026-04-30 10:52 | 44.91558 | 4.96640 | 533 ft | 2 kts | 6° |
| 2026-04-30 10:52 | 44.91556 | 4.96640 | 533 ft | 17 kts | 9° |
| 2026-04-30 10:53 | 44.91563 | 4.96650 | 533 ft | 2 kts | 73° |
| 2026-04-30 10:53 | 44.91545 | 4.96719 | 533 ft | 19 kts | 115° |
| 2026-04-30 10:54 | 44.91539 | 4.96743 | 533 ft | 0 kts | 107° |
| 2026-04-30 10:54 | 44.91534 | 4.96768 | 533 ft | 14 kts | 101° |
| 2026-04-30 10:54 | 44.91554 | 4.96860 | 533 ft | 5 kts | 15° |
| 2026-04-30 10:54 | 44.91569 | 4.96865 | 533 ft | 13 kts | 13° |
| 2026-04-30 10:55 | 44.91978 | 4.96936 | 533 ft | 105 kts | 8° |
| 2026-04-30 10:55 | 44.92861 | 4.97112 | 538 ft | 138 kts | 8° |
| 2026-04-30 10:55 | 44.93813 | 4.97315 | 653 ft | 139 kts | 9° |
| 2026-04-30 10:55 | 44.94890 | 4.97592 | 1205 ft | 174 kts | 12° |
| 2026-04-30 10:56 | 44.96051 | 4.97744 | 2511 ft | 164 kts | 351° |
| 2026-04-30 10:56 | 44.97041 | 4.97041 | 3544 ft | 163 kts | 320° |
| 2026-04-30 10:56 | 44.97932 | 4.95901 | 4141 ft | 186 kts | 322° |
| 2026-04-30 10:56 | 44.99208 | 4.95164 | 4519 ft | 218 kts | 357° |
| 2026-04-30 10:57 | 45.00718 | 4.95786 | 4874 ft | 244 kts | 33° |
| 2026-04-30 10:57 | 45.02026 | 4.97459 | 5496 ft | 262 kts | 44° |
| 2026-04-30 10:57 | 45.03403 | 4.98949 | 6180 ft | 278 kts | 33° |
| 2026-04-30 10:57 | 45.04956 | 5.00206 | 7116 ft | 283 kts | 31° |
| 2026-04-30 10:58 | 45.06724 | 5.01468 | 8185 ft | 287 kts | 25° |
| 2026-04-30 10:58 | 45.08611 | 5.02460 | 9209 ft | 291 kts | 19° |
| 2026-04-30 10:58 | 45.10564 | 5.03292 | 10240 ft | 294 kts | 16° |
| 2026-04-30 10:58 | 45.12551 | 5.04043 | 11205 ft | 300 kts | 15° |
| 2026-04-30 10:59 | 45.14389 | 5.04724 | 11788 ft | 314 kts | 14° |
| 2026-04-30 10:59 | 45.16577 | 5.05534 | 12286 ft | 335 kts | 14° |
| 2026-04-30 10:59 | 45.18881 | 5.06386 | 12860 ft | 350 kts | 14° |
| 2026-04-30 10:59 | 45.21261 | 5.07268 | 13687 ft | 356 kts | 14° |
| 2026-04-30 11:00 | 45.23675 | 5.08164 | 14551 ft | 361 kts | 14° |
| 2026-04-30 11:00 | 45.26113 | 5.09068 | 15426 ft | 364 kts | 14° |
| 2026-04-30 11:00 | 45.28576 | 5.09983 | 16295 ft | 367 kts | 14° |
| 2026-04-30 11:00 | 45.31063 | 5.10906 | 17136 ft | 370 kts | 14° |
| 2026-04-30 11:01 | 45.33571 | 5.11839 | 17937 ft | 374 kts | 15° |
| 2026-04-30 11:01 | 45.36040 | 5.13043 | 18678 ft | 378 kts | 25° |
| 2026-04-30 11:01 | 45.38306 | 5.14983 | 19370 ft | 383 kts | 37° |
| 2026-04-30 11:01 | 45.40306 | 5.17502 | 20082 ft | 386 kts | 45° |
| 2026-04-30 11:02 | 45.42153 | 5.20301 | 20794 ft | 390 kts | 48° |
| 2026-04-30 11:02 | 45.43956 | 5.23212 | 21459 ft | 394 kts | 49° |
| 2026-04-30 11:02 | 45.45782 | 5.26157 | 22124 ft | 397 kts | 48° |
| 2026-04-30 11:02 | 45.47627 | 5.29110 | 22765 ft | 401 kts | 48° |
| 2026-04-30 11:03 | 45.49494 | 5.32083 | 23364 ft | 405 kts | 48° |
| 2026-04-30 11:03 | 45.51384 | 5.35083 | 23982 ft | 408 kts | 48° |
| 2026-04-30 11:03 | 45.53287 | 5.38099 | 24538 ft | 412 kts | 47° |
| 2026-04-30 11:04 | 45.57157 | 5.44230 | 25585 ft | 419 kts | 47° |
| 2026-04-30 11:04 | 45.59117 | 5.47337 | 26072 ft | 423 kts | 47° |
| 2026-04-30 11:04 | 45.61097 | 5.50468 | 26561 ft | 427 kts | 46° |
| 2026-04-30 11:04 | 45.63113 | 5.53605 | 27011 ft | 431 kts | 46° |
| 2026-04-30 11:05 | 45.65138 | 5.56781 | 27508 ft | 433 kts | 46° |
| 2026-04-30 11:05 | 45.67166 | 5.59983 | 27927 ft | 437 kts | 46° |
| 2026-04-30 11:05 | 45.69215 | 5.63225 | 28364 ft | 440 kts | 46° |
| 2026-04-30 11:05 | 45.71294 | 5.66453 | 28760 ft | 444 kts | 45° |
| 2026-04-30 11:06 | 45.73208 | 5.69476 | 29122 ft | 446 kts | 45° |
| 2026-04-30 11:06 | 45.75287 | 5.72798 | 29497 ft | 450 kts | 45° |
| 2026-04-30 11:06 | 45.77386 | 5.76165 | 29858 ft | 453 kts | 45° |
| 2026-04-30 11:06 | 45.79495 | 5.79541 | 30205 ft | 456 kts | 46° |
| 2026-04-30 11:07 | 45.81617 | 5.82936 | 30595 ft | 458 kts | 45° |
| 2026-04-30 11:07 | 45.83733 | 5.86367 | 30986 ft | 459 kts | 45° |
| 2026-04-30 11:07 | 45.85859 | 5.89771 | 31455 ft | 459 kts | 45° |
| 2026-04-30 11:07 | 45.87978 | 5.93176 | 31963 ft | 456 kts | 45° |
| 2026-04-30 11:08 | 45.90051 | 5.96625 | 32379 ft | 458 kts | 49° |
| 2026-04-30 11:08 | 45.91933 | 6.00329 | 32769 ft | 460 kts | 53° |
| 2026-04-30 11:08 | 45.93674 | 6.04186 | 33193 ft | 460 kts | 55° |
| 2026-04-30 11:08 | 45.95358 | 6.08076 | 33639 ft | 458 kts | 55° |
| 2026-04-30 11:09 | 45.97046 | 6.11968 | 34035 ft | 458 kts | 55° |
| 2026-04-30 11:09 | 45.98729 | 6.15847 | 34442 ft | 457 kts | 55° |
| 2026-04-30 11:09 | 46.00416 | 6.19730 | 34798 ft | 458 kts | 55° |
| 2026-04-30 11:09 | 46.02099 | 6.23607 | 35229 ft | 456 kts | 55° |
| 2026-04-30 11:10 | 46.03210 | 6.26165 | 35484 ft | 456 kts | 56° |
| 2026-04-30 11:10 | 46.03950 | 6.27872 | 35651 ft | 455 kts | 56° |
| 2026-04-30 11:10 | 46.05628 | 6.31742 | 36004 ft | 455 kts | 56° |
| 2026-04-30 11:10 | 46.07303 | 6.35610 | 36381 ft | 454 kts | 56° |
| 2026-04-30 11:11 | 46.08970 | 6.39456 | 36742 ft | 453 kts | 55° |
| 2026-04-30 11:11 | 46.10649 | 6.43238 | 37080 ft | 453 kts | 55° |
| 2026-04-30 11:11 | 46.12360 | 6.47106 | 37428 ft | 452 kts | 55° |
| 2026-04-30 11:11 | 46.14040 | 6.50931 | 37756 ft | 452 kts | 55° |
| 2026-04-30 11:12 | 46.15715 | 6.54763 | 38079 ft | 451 kts | 56° |
| 2026-04-30 11:12 | 46.17391 | 6.58611 | 38197 ft | 454 kts | 56° |
| 2026-04-30 11:12 | 46.19068 | 6.62472 | 38203 ft | 456 kts | 56° |
| 2026-04-30 11:13 | 46.22300 | 6.69943 | 38200 ft | 452 kts | 56° |
| 2026-04-30 11:13 | 46.25603 | 6.77604 | 38189 ft | 448 kts | 56° |
| 2026-04-30 11:14 | 46.28887 | 6.85244 | 38185 ft | 447 kts | 56° |
| 2026-04-30 11:14 | 46.32159 | 6.92881 | 38179 ft | 446 kts | 56° |
| 2026-04-30 11:15 | 46.35420 | 7.00512 | 38174 ft | 445 kts | 56° |
| 2026-04-30 11:15 | 46.38667 | 7.08133 | 38171 ft | 445 kts | 56° |
| 2026-04-30 11:16 | 46.41911 | 7.15766 | 38170 ft | 444 kts | 56° |
| 2026-04-30 11:16 | 46.44265 | 7.21319 | 38170 ft | 443 kts | 56° |
| 2026-04-30 11:17 | 46.46704 | 7.27092 | 38173 ft | 443 kts | 56° |
| 2026-04-30 11:17 | 46.48341 | 7.31028 | 38126 ft | 445 kts | 58° |
| 2026-04-30 11:18 | 46.51584 | 7.38784 | 38145 ft | 442 kts | 56° |
| 2026-04-30 11:18 | 46.56349 | 7.50044 | 38180 ft | 442 kts | 56° |
| 2026-04-30 11:19 | 46.59496 | 7.57543 | 38187 ft | 442 kts | 57° |
| 2026-04-30 11:19 | 46.62687 | 7.65180 | 38194 ft | 442 kts | 56° |
| 2026-04-30 11:20 | 46.65771 | 7.72584 | 38198 ft | 442 kts | 56° |
| 2026-04-30 11:20 | 46.68967 | 7.80281 | 38200 ft | 442 kts | 57° |
| 2026-04-30 11:21 | 46.72140 | 7.87947 | 38201 ft | 442 kts | 57° |
| 2026-04-30 11:21 | 46.75307 | 7.95614 | 38202 ft | 441 kts | 57° |
| 2026-04-30 11:22 | 46.78465 | 8.03286 | 38205 ft | 440 kts | 57° |
| 2026-04-30 11:22 | 46.81596 | 8.10913 | 38205 ft | 437 kts | 57° |
| 2026-04-30 11:23 | 46.84719 | 8.18541 | 38214 ft | 437 kts | 57° |
| 2026-04-30 11:24 | 46.89392 | 8.29996 | 38241 ft | 437 kts | 57° |
| 2026-04-30 11:24 | 46.92498 | 8.37635 | 38253 ft | 436 kts | 57° |
| 2026-04-30 11:25 | 46.97134 | 8.49082 | 38260 ft | 436 kts | 57° |
| 2026-04-30 11:26 | 47.03280 | 8.64328 | 38265 ft | 434 kts | 57° |
| 2026-04-30 11:26 | 47.06317 | 8.71892 | 38270 ft | 434 kts | 57° |
| 2026-04-30 11:27 | 47.09189 | 8.79065 | 38277 ft | 434 kts | 57° |
| 2026-04-30 11:27 | 47.12236 | 8.86696 | 38281 ft | 433 kts | 57° |
| 2026-04-30 11:28 | 47.16792 | 8.98150 | 38281 ft | 432 kts | 57° |
| 2026-04-30 11:29 | 47.19809 | 9.05759 | 38283 ft | 431 kts | 57° |
| 2026-04-30 11:29 | 47.24325 | 9.17190 | 38285 ft | 430 kts | 57° |
| 2026-04-30 11:30 | 47.27324 | 9.24808 | 37776 ft | 427 kts | 57° |
| 2026-04-30 11:30 | 47.28808 | 9.28583 | 37115 ft | 426 kts | 58° |
| 2026-04-30 11:30 | 47.30171 | 9.32058 | 36482 ft | 426 kts | 58° |
| 2026-04-30 11:31 | 47.31722 | 9.36017 | 35647 ft | 428 kts | 58° |
| 2026-04-30 11:31 | 47.33207 | 9.39812 | 34905 ft | 428 kts | 58° |
| 2026-04-30 11:31 | 47.34689 | 9.43604 | 34222 ft | 425 kts | 58° |
| 2026-04-30 11:31 | 47.36153 | 9.47359 | 33693 ft | 419 kts | 58° |
| 2026-04-30 11:32 | 47.37587 | 9.51040 | 33172 ft | 413 kts | 58° |
| 2026-04-30 11:32 | 47.39012 | 9.54701 | 32663 ft | 407 kts | 58° |
| 2026-04-30 11:32 | 47.40412 | 9.58305 | 32159 ft | 402 kts | 58° |
| 2026-04-30 11:33 | 47.43159 | 9.65388 | 31171 ft | 392 kts | 59° |
| 2026-04-30 11:33 | 47.44500 | 9.68855 | 30693 ft | 387 kts | 59° |
| 2026-04-30 11:33 | 47.45826 | 9.72289 | 30225 ft | 382 kts | 59° |
| 2026-04-30 11:33 | 47.47128 | 9.75661 | 29768 ft | 378 kts | 59° |
| 2026-04-30 11:34 | 47.48312 | 9.78733 | 29353 ft | 374 kts | 59° |
| 2026-04-30 11:34 | 47.49588 | 9.82048 | 28897 ft | 370 kts | 59° |
| 2026-04-30 11:34 | 47.50861 | 9.85358 | 28446 ft | 367 kts | 59° |
| 2026-04-30 11:34 | 47.52113 | 9.88617 | 27998 ft | 363 kts | 59° |
| 2026-04-30 11:35 | 47.53354 | 9.91851 | 27556 ft | 359 kts | 59° |
| 2026-04-30 11:35 | 47.54581 | 9.95054 | 27110 ft | 356 kts | 59° |
| 2026-04-30 11:35 | 47.55792 | 9.98216 | 26674 ft | 352 kts | 59° |
| 2026-04-30 11:35 | 47.56993 | 10.01358 | 26244 ft | 349 kts | 59° |
| 2026-04-30 11:36 | 47.58182 | 10.04473 | 25804 ft | 346 kts | 59° |
| 2026-04-30 11:36 | 47.59379 | 10.07610 | 25369 ft | 343 kts | 59° |
| 2026-04-30 11:36 | 47.60531 | 10.10634 | 24942 ft | 340 kts | 59° |
| 2026-04-30 11:36 | 47.61697 | 10.13698 | 24512 ft | 337 kts | 59° |
| 2026-04-30 11:37 | 47.62841 | 10.16707 | 24098 ft | 334 kts | 59° |
| 2026-04-30 11:37 | 47.63976 | 10.19694 | 23688 ft | 331 kts | 59° |
| 2026-04-30 11:37 | 47.65091 | 10.22636 | 23270 ft | 320 kts | 59° |
| 2026-04-30 11:37 | 47.66195 | 10.25549 | 22866 ft | 328 kts | 59° |
| 2026-04-30 11:38 | 47.67328 | 10.28541 | 22436 ft | 340 kts | 59° |
| 2026-04-30 11:38 | 47.68374 | 10.31309 | 22036 ft | 342 kts | 59° |
| 2026-04-30 11:38 | 47.69607 | 10.34573 | 21576 ft | 340 kts | 59° |
| 2026-04-30 11:38 | 47.70754 | 10.37616 | 21139 ft | 336 kts | 59° |
| 2026-04-30 11:39 | 47.71890 | 10.40632 | 20698 ft | 333 kts | 59° |
| 2026-04-30 11:39 | 47.73018 | 10.43627 | 20279 ft | 330 kts | 59° |
| 2026-04-30 11:39 | 47.74131 | 10.46584 | 19848 ft | 327 kts | 59° |
| 2026-04-30 11:39 | 47.75235 | 10.49525 | 19426 ft | 325 kts | 59° |
| 2026-04-30 11:40 | 47.76328 | 10.52438 | 19012 ft | 322 kts | 59° |
| 2026-04-30 11:40 | 47.77417 | 10.55344 | 18590 ft | 320 kts | 59° |
| 2026-04-30 11:40 | 47.78492 | 10.58215 | 18180 ft | 317 kts | 59° |
| 2026-04-30 11:40 | 47.79197 | 10.60102 | 17907 ft | 316 kts | 59° |
| 2026-04-30 11:41 | 47.80558 | 10.63745 | 17383 ft | 313 kts | 59° |
| 2026-04-30 11:41 | 47.81609 | 10.66561 | 16977 ft | 312 kts | 59° |
| 2026-04-30 11:41 | 47.82653 | 10.69363 | 16577 ft | 310 kts | 60° |
| 2026-04-30 11:41 | 47.83700 | 10.72174 | 16175 ft | 308 kts | 60° |
| 2026-04-30 11:42 | 47.84744 | 10.74981 | 15772 ft | 307 kts | 60° |
| 2026-04-30 11:42 | 47.85792 | 10.77804 | 15366 ft | 305 kts | 60° |
| 2026-04-30 11:42 | 47.86820 | 10.80573 | 14967 ft | 304 kts | 60° |
| 2026-04-30 11:42 | 47.87838 | 10.83315 | 14572 ft | 303 kts | 60° |
| 2026-04-30 11:43 | 47.88856 | 10.86065 | 14176 ft | 302 kts | 60° |
| 2026-04-30 11:43 | 47.89865 | 10.88793 | 13767 ft | 301 kts | 60° |
| 2026-04-30 11:43 | 47.90862 | 10.91492 | 13384 ft | 300 kts | 60° |
| 2026-04-30 11:43 | 47.91880 | 10.94194 | 13000 ft | 298 kts | 60° |
| 2026-04-30 11:44 | 47.92939 | 10.96835 | 12696 ft | 294 kts | 54° |
| 2026-04-30 11:44 | 47.94286 | 10.99149 | 12215 ft | 300 kts | 42° |
| 2026-04-30 11:44 | 47.95891 | 11.01175 | 11812 ft | 305 kts | 41° |
| 2026-04-30 11:44 | 47.97522 | 11.03294 | 11453 ft | 306 kts | 41° |
| 2026-04-30 11:45 | 47.99106 | 11.05356 | 11233 ft | 299 kts | 41° |
| 2026-04-30 11:45 | 48.00651 | 11.07362 | 10847 ft | 298 kts | 42° |
| 2026-04-30 11:45 | 48.02203 | 11.09376 | 10568 ft | 293 kts | 42° |
| 2026-04-30 11:45 | 48.03693 | 11.11314 | 10503 ft | 281 kts | 43° |
| 2026-04-30 11:46 | 48.05141 | 11.13197 | 10439 ft | 269 kts | 43° |
| 2026-04-30 11:46 | 48.06079 | 11.14417 | 10393 ft | 262 kts | 43° |
| 2026-04-30 11:46 | 48.07428 | 11.16165 | 10204 ft | 257 kts | 42° |
| 2026-04-30 11:46 | 48.08798 | 11.17898 | 9898 ft | 256 kts | 42° |
| 2026-04-30 11:47 | 48.10153 | 11.19628 | 9580 ft | 256 kts | 43° |
| 2026-04-30 11:47 | 48.11511 | 11.21376 | 9260 ft | 256 kts | 43° |
| 2026-04-30 11:47 | 48.12866 | 11.23129 | 8933 ft | 255 kts | 43° |
| 2026-04-30 11:47 | 48.14211 | 11.24879 | 8612 ft | 255 kts | 44° |
| 2026-04-30 11:48 | 48.15440 | 11.26479 | 8320 ft | 255 kts | 44° |
| 2026-04-30 11:48 | 48.16778 | 11.28227 | 7994 ft | 255 kts | 44° |
| 2026-04-30 11:48 | 48.18099 | 11.29955 | 7671 ft | 255 kts | 44° |
| 2026-04-30 11:48 | 48.19470 | 11.31688 | 7360 ft | 256 kts | 39° |
| 2026-04-30 11:49 | 48.21086 | 11.32846 | 7103 ft | 262 kts | 18° |
| 2026-04-30 11:49 | 48.22874 | 11.33261 | 6953 ft | 257 kts | 14° |
| 2026-04-30 11:49 | 48.24478 | 11.34196 | 6768 ft | 244 kts | 37° |
| 2026-04-30 11:49 | 48.25739 | 11.35891 | 6334 ft | 244 kts | 53° |
| 2026-04-30 11:50 | 48.26772 | 11.37893 | 5967 ft | 245 kts | 54° |
| 2026-04-30 11:50 | 48.27812 | 11.39934 | 5665 ft | 244 kts | 56° |
| 2026-04-30 11:50 | 48.28819 | 11.41932 | 5579 ft | 234 kts | 56° |
| 2026-04-30 11:50 | 48.29777 | 11.43831 | 5512 ft | 223 kts | 56° |
| 2026-04-30 11:51 | 48.30682 | 11.45625 | 5459 ft | 212 kts | 56° |
| 2026-04-30 11:51 | 48.31548 | 11.47371 | 5397 ft | 203 kts | 60° |
| 2026-04-30 11:51 | 48.32052 | 11.49300 | 5385 ft | 195 kts | 79° |
| 2026-04-30 11:51 | 48.32246 | 11.51291 | 5394 ft | 194 kts | 84° |
| 2026-04-30 11:52 | 48.32394 | 11.53312 | 5401 ft | 193 kts | 85° |
| 2026-04-30 11:52 | 48.32543 | 11.55305 | 5395 ft | 191 kts | 84° |
| 2026-04-30 11:52 | 48.32694 | 11.57281 | 5380 ft | 193 kts | 84° |
| 2026-04-30 11:52 | 48.32843 | 11.59273 | 5305 ft | 194 kts | 85° |
| 2026-04-30 11:53 | 48.32964 | 11.61554 | 4087 ft | 239 kts | 87° |
| 2026-04-30 11:53 | 48.33123 | 11.64165 | 3151 ft | 260 kts | 81° |
| 2026-04-30 11:53 | 48.33442 | 11.66842 | 2504 ft | 255 kts | 82° |
| 2026-04-30 11:53 | 48.33627 | 11.69393 | 2246 ft | 234 kts | 84° |
| 2026-04-30 11:54 | 48.33800 | 11.71647 | 2049 ft | 198 kts | 84° |
| 2026-04-30 11:54 | 48.33948 | 11.73567 | 1748 ft | 176 kts | 84° |
| 2026-04-30 11:54 | 48.34083 | 11.75310 | 1501 ft | 158 kts | 84° |
| 2026-04-30 11:54 | 48.34192 | 11.76759 | 1496 ft | 119 kts | 84° |
| 2026-04-30 11:55 | 48.34261 | 11.77692 | 1495 ft | 57 kts | 78° |
| 2026-04-30 11:55 | 48.34338 | 11.78223 | 1495 ft | 46 kts | 64° |
| 2026-04-30 11:55 | 48.34462 | 11.78519 | 1495 ft | 0 kts | 53° |
| 2026-04-30 11:56 | 48.34489 | 11.78576 | 1495 ft | 8 kts | 50° |
| 2026-04-30 11:56 | 48.34517 | 11.78636 | 1495 ft | 2 kts | 52° |
| 2026-04-30 11:56 | 48.34551 | 11.78691 | 1495 ft | 16 kts | 48° |
| 2026-04-30 11:56 | 48.34653 | 11.78735 | 1495 ft | 22 kts | 339° |
| 2026-04-30 11:57 | 48.34717 | 11.78595 | 1495 ft | 17 kts | 265° |
| 2026-04-30 11:57 | 48.34703 | 11.78425 | 1495 ft | 16 kts | 265° |
| 2026-04-30 11:57 | 48.34695 | 11.78266 | 1495 ft | 15 kts | 259° |
| 2026-04-30 11:57 | 48.34682 | 11.78116 | 1495 ft | 14 kts | 262° |
| 2026-04-30 11:58 | 48.34675 | 11.77977 | 1495 ft | 13 kts | 278° |
| 2026-04-30 11:58 | 48.34735 | 11.77892 | 1496 ft | 13 kts | 348° |
| 2026-04-30 11:58 | 48.34820 | 11.77873 | 1496 ft | 12 kts | 354° |
| 2026-04-30 11:58 | 48.34902 | 11.77860 | 1495 ft | 12 kts | 354° |
| 2026-04-30 11:59 | 48.34980 | 11.77848 | 1495 ft | 11 kts | 356° |
| 2026-04-30 11:59 | 48.35056 | 11.77840 | 1495 ft | 11 kts | 358° |
| 2026-04-30 11:59 | 48.35141 | 11.77837 | 1495 ft | 16 kts | 4° |
| 2026-04-30 11:59 | 48.35190 | 11.77964 | 1495 ft | 18 kts | 88° |
| 2026-04-30 12:00 | 48.35205 | 11.78130 | 1495 ft | 15 kts | 56° |
| 2026-04-30 12:00 | 48.35267 | 11.78208 | 1495 ft | 13 kts | 78° |
| 2026-04-30 12:00 | 48.35276 | 11.78318 | 1495 ft | 0 kts | 83° |